sensor_id;sensor_type;location;lat;lon;timestamp;temperature;humidity
44513;DHT22;30219;50.588;9.504;2022-09-19T00:01:39;8.20;99.90
44513;DHT22;30219;50.588;9.504;2022-09-19T00:04:07;8.20;99.90
44513;DHT22;30219;50.588;9.504;2022-09-19T00:06:35;8.10;99.90
44513;DHT22;30219;50.588;9.504;2022-09-19T00:09:02;8.10;99.90
44513;DHT22;30219;50.588;9.504;2022-09-19T00:11:27;8.20;99.90
44513;DHT22;30219;50.588;9.504;2022-09-19T00:13:54;8.20;99.90
44513;DHT22;30219;50.588;9.504;2022-09-19T00:16:24;8.20;99.90
44513;DHT22;30219;50.588;9.504;2022-09-19T00:18:52;8.20;99.90
44513;DHT22;30219;50.588;9.504;2022-09-19T00:21:30;8.30;99.90
44513;DHT22;30219;50.588;9.504;2022-09-19T00:23:56;8.30;99.90
44513;DHT22;30219;50.588;9.504;2022-09-19T00:26:40;8.40;99.90
44513;DHT22;30219;50.588;9.504;2022-09-19T00:29:08;8.30;99.90
44513;DHT22;30219;50.588;9.504;2022-09-19T00:31:34;8.30;99.90
44513;DHT22;30219;50.588;9.504;2022-09-19T00:34:01;8.30;99.90
44513;DHT22;30219;50.588;9.504;2022-09-19T00:36:30;8.30;99.90
44513;DHT22;30219;50.588;9.504;2022-09-19T00:38:56;8.40;99.90
44513;DHT22;30219;50.588;9.504;2022-09-19T00:41:23;8.50;99.90
44513;DHT22;30219;50.588;9.504;2022-09-19T00:43:53;8.50;99.90
44513;DHT22;30219;50.588;9.504;2022-09-19T00:46:20;8.40;99.90
44513;DHT22;30219;50.588;9.504;2022-09-19T00:49:08;8.40;99.90
44513;DHT22;30219;50.588;9.504;2022-09-19T00:51:54;8.40;99.90
44513;DHT22;30219;50.588;9.504;2022-09-19T00:54:28;8.40;99.90
44513;DHT22;30219;50.588;9.504;2022-09-19T00:56:55;8.40;99.90
44513;DHT22;30219;50.588;9.504;2022-09-19T00:59:23;8.50;99.90
44513;DHT22;30219;50.588;9.504;2022-09-19T01:01:52;8.50;99.90
44513;DHT22;30219;50.588;9.504;2022-09-19T01:04:21;8.50;99.90
44513;DHT22;30219;50.588;9.504;2022-09-19T01:07:10;8.50;99.90
44513;DHT22;30219;50.588;9.504;2022-09-19T01:10:05;8.50;99.90
44513;DHT22;30219;50.588;9.504;2022-09-19T01:18:10;8.60;99.90
44513;DHT22;30219;50.588;9.504;2022-09-19T01:20:43;8.60;99.90
44513;DHT22;30219;50.588;9.504;2022-09-19T01:23:32;8.70;99.90
44513;DHT22;30219;50.588;9.504;2022-09-19T01:29:00;8.70;99.90
44513;DHT22;30219;50.588;9.504;2022-09-19T01:31:35;8.60;99.90
44513;DHT22;30219;50.588;9.504;2022-09-19T01:34:22;8.70;99.90
44513;DHT22;30219;50.588;9.504;2022-09-19T01:37:15;8.70;99.90
44513;DHT22;30219;50.588;9.504;2022-09-19T01:39:45;8.80;99.90
44513;DHT22;30219;50.588;9.504;2022-09-19T01:42:18;8.70;99.90
44513;DHT22;30219;50.588;9.504;2022-09-19T01:44:44;8.80;99.90
44513;DHT22;30219;50.588;9.504;2022-09-19T01:50:10;8.90;99.90
44513;DHT22;30219;50.588;9.504;2022-09-19T01:56:02;8.90;99.90
44513;DHT22;30219;50.588;9.504;2022-09-19T01:58:50;8.90;99.90
44513;DHT22;30219;50.588;9.504;2022-09-19T02:01:46;8.90;99.90
44513;DHT22;30219;50.588;9.504;2022-09-19T02:04:20;8.90;99.90
44513;DHT22;30219;50.588;9.504;2022-09-19T02:06:55;9.00;99.90
44513;DHT22;30219;50.588;9.504;2022-09-19T02:09:48;9.00;99.90
44513;DHT22;30219;50.588;9.504;2022-09-19T02:12:17;9.00;99.90
44513;DHT22;30219;50.588;9.504;2022-09-19T02:14:48;9.00;99.90
44513;DHT22;30219;50.588;9.504;2022-09-19T02:17:24;9.00;99.90
44513;DHT22;30219;50.588;9.504;2022-09-19T02:19:56;9.10;99.90
44513;DHT22;30219;50.588;9.504;2022-09-19T02:22:30;9.00;99.90
44513;DHT22;30219;50.588;9.504;2022-09-19T02:25:00;9.00;99.90
44513;DHT22;30219;50.588;9.504;2022-09-19T02:27:35;9.00;99.90
44513;DHT22;30219;50.588;9.504;2022-09-19T02:30:06;9.10;99.90
44513;DHT22;30219;50.588;9.504;2022-09-19T02:32:36;9.10;99.90
44513;DHT22;30219;50.588;9.504;2022-09-19T02:35:04;9.20;99.90
44513;DHT22;30219;50.588;9.504;2022-09-19T02:41:08;9.20;99.90
44513;DHT22;30219;50.588;9.504;2022-09-19T02:43:38;9.20;99.90
44513;DHT22;30219;50.588;9.504;2022-09-19T02:46:11;9.20;99.90
44513;DHT22;30219;50.588;9.504;2022-09-19T02:48:52;9.20;99.90
44513;DHT22;30219;50.588;9.504;2022-09-19T02:51:25;9.10;99.90
44513;DHT22;30219;50.588;9.504;2022-09-19T02:53:58;9.10;99.90
44513;DHT22;30219;50.588;9.504;2022-09-19T02:56:27;9.20;99.90
44513;DHT22;30219;50.588;9.504;2022-09-19T02:59:08;9.10;99.90
44513;DHT22;30219;50.588;9.504;2022-09-19T03:01:38;9.10;99.90
44513;DHT22;30219;50.588;9.504;2022-09-19T03:04:07;9.10;99.90
44513;DHT22;30219;50.588;9.504;2022-09-19T03:06:39;9.10;99.90
44513;DHT22;30219;50.588;9.504;2022-09-19T03:09:06;9.10;99.90
44513;DHT22;30219;50.588;9.504;2022-09-19T03:11:36;9.10;99.90
44513;DHT22;30219;50.588;9.504;2022-09-19T03:14:03;9.10;99.90
44513;DHT22;30219;50.588;9.504;2022-09-19T03:16:33;9.10;99.90
44513;DHT22;30219;50.588;9.504;2022-09-19T03:19:05;9.10;99.90
44513;DHT22;30219;50.588;9.504;2022-09-19T03:21:32;9.10;99.90
44513;DHT22;30219;50.588;9.504;2022-09-19T03:23:58;9.10;99.90
44513;DHT22;30219;50.588;9.504;2022-09-19T03:26:30;9.00;99.90
44513;DHT22;30219;50.588;9.504;2022-09-19T03:28:59;9.00;99.90
44513;DHT22;30219;50.588;9.504;2022-09-19T03:31:26;9.00;99.90
44513;DHT22;30219;50.588;9.504;2022-09-19T03:33:53;9.00;99.90
44513;DHT22;30219;50.588;9.504;2022-09-19T03:36:21;9.00;99.90
44513;DHT22;30219;50.588;9.504;2022-09-19T03:38:47;9.00;99.90
44513;DHT22;30219;50.588;9.504;2022-09-19T03:41:15;9.00;99.90
44513;DHT22;30219;50.588;9.504;2022-09-19T03:43:41;9.00;99.90
44513;DHT22;30219;50.588;9.504;2022-09-19T03:46:11;9.00;99.90
44513;DHT22;30219;50.588;9.504;2022-09-19T03:48:38;9.10;99.90
44513;DHT22;30219;50.588;9.504;2022-09-19T03:51:04;9.10;99.90
44513;DHT22;30219;50.588;9.504;2022-09-19T03:53:30;9.00;99.90
44513;DHT22;30219;50.588;9.504;2022-09-19T03:55:56;9.00;99.90
44513;DHT22;30219;50.588;9.504;2022-09-19T03:58:22;9.00;99.90
44513;DHT22;30219;50.588;9.504;2022-09-19T04:00:49;8.90;99.90
44513;DHT22;30219;50.588;9.504;2022-09-19T04:03:15;8.80;99.90
44513;DHT22;30219;50.588;9.504;2022-09-19T04:05:42;8.70;99.90
44513;DHT22;30219;50.588;9.504;2022-09-19T04:08:08;8.70;99.90
44513;DHT22;30219;50.588;9.504;2022-09-19T04:10:34;8.60;99.90
44513;DHT22;30219;50.588;9.504;2022-09-19T04:12:59;8.70;99.90
44513;DHT22;30219;50.588;9.504;2022-09-19T04:15:25;8.70;99.90
44513;DHT22;30219;50.588;9.504;2022-09-19T04:17:51;8.70;99.90
44513;DHT22;30219;50.588;9.504;2022-09-19T04:20:17;8.70;99.90
44513;DHT22;30219;50.588;9.504;2022-09-19T04:22:42;8.70;99.90
44513;DHT22;30219;50.588;9.504;2022-09-19T04:25:08;8.70;99.90
44513;DHT22;30219;50.588;9.504;2022-09-19T04:27:36;8.70;99.90
44513;DHT22;30219;50.588;9.504;2022-09-19T04:30:03;8.60;99.90
44513;DHT22;30219;50.588;9.504;2022-09-19T04:32:29;8.60;99.90
44513;DHT22;30219;50.588;9.504;2022-09-19T04:34:56;8.70;99.90
44513;DHT22;30219;50.588;9.504;2022-09-19T04:37:23;8.60;99.90
44513;DHT22;30219;50.588;9.504;2022-09-19T04:39:49;8.60;99.90
44513;DHT22;30219;50.588;9.504;2022-09-19T04:42:16;8.70;99.90
44513;DHT22;30219;50.588;9.504;2022-09-19T04:44:41;8.70;99.90
44513;DHT22;30219;50.588;9.504;2022-09-19T04:47:08;8.70;99.90
44513;DHT22;30219;50.588;9.504;2022-09-19T04:49:36;8.70;99.90
44513;DHT22;30219;50.588;9.504;2022-09-19T04:52:10;8.70;99.90
44513;DHT22;30219;50.588;9.504;2022-09-19T04:54:38;8.60;99.90
44513;DHT22;30219;50.588;9.504;2022-09-19T04:57:04;8.60;99.90
44513;DHT22;30219;50.588;9.504;2022-09-19T04:59:31;8.60;99.90
44513;DHT22;30219;50.588;9.504;2022-09-19T05:01:57;8.70;99.90
44513;DHT22;30219;50.588;9.504;2022-09-19T05:04:24;8.70;99.90
44513;DHT22;30219;50.588;9.504;2022-09-19T05:06:50;8.80;99.90
44513;DHT22;30219;50.588;9.504;2022-09-19T05:09:17;8.90;99.90
44513;DHT22;30219;50.588;9.504;2022-09-19T05:11:43;8.90;99.90
44513;DHT22;30219;50.588;9.504;2022-09-19T05:14:12;8.90;99.90
44513;DHT22;30219;50.588;9.504;2022-09-19T05:16:39;9.00;99.90
44513;DHT22;30219;50.588;9.504;2022-09-19T05:19:05;9.10;99.90
44513;DHT22;30219;50.588;9.504;2022-09-19T05:21:31;9.10;99.90
44513;DHT22;30219;50.588;9.504;2022-09-19T05:24:01;9.20;99.90
44513;DHT22;30219;50.588;9.504;2022-09-19T05:26:27;9.20;99.90
44513;DHT22;30219;50.588;9.504;2022-09-19T05:28:53;9.20;99.90
44513;DHT22;30219;50.588;9.504;2022-09-19T05:31:19;9.20;99.90
44513;DHT22;30219;50.588;9.504;2022-09-19T05:33:46;9.30;99.90
44513;DHT22;30219;50.588;9.504;2022-09-19T05:36:12;9.20;99.90
44513;DHT22;30219;50.588;9.504;2022-09-19T05:38:38;9.20;99.90
44513;DHT22;30219;50.588;9.504;2022-09-19T05:41:05;9.10;99.90
44513;DHT22;30219;50.588;9.504;2022-09-19T05:43:31;9.20;99.90
44513;DHT22;30219;50.588;9.504;2022-09-19T05:45:58;9.30;99.90
44513;DHT22;30219;50.588;9.504;2022-09-19T05:48:24;9.30;99.90
44513;DHT22;30219;50.588;9.504;2022-09-19T05:50:52;9.30;99.90
44513;DHT22;30219;50.588;9.504;2022-09-19T05:53:18;9.30;99.90
44513;DHT22;30219;50.588;9.504;2022-09-19T05:56:03;9.40;99.90
44513;DHT22;30219;50.588;9.504;2022-09-19T05:58:30;9.50;99.90
44513;DHT22;30219;50.588;9.504;2022-09-19T06:00:56;9.50;99.90
44513;DHT22;30219;50.588;9.504;2022-09-19T06:03:22;9.50;99.90
44513;DHT22;30219;50.588;9.504;2022-09-19T06:05:50;9.60;99.90
44513;DHT22;30219;50.588;9.504;2022-09-19T06:08:19;9.70;99.90
44513;DHT22;30219;50.588;9.504;2022-09-19T06:10:46;9.60;99.90
44513;DHT22;30219;50.588;9.504;2022-09-19T06:13:19;9.70;99.90
44513;DHT22;30219;50.588;9.504;2022-09-19T06:15:45;9.80;99.90
44513;DHT22;30219;50.588;9.504;2022-09-19T06:18:11;9.80;99.90
44513;DHT22;30219;50.588;9.504;2022-09-19T06:20:41;9.80;99.90
44513;DHT22;30219;50.588;9.504;2022-09-19T06:23:09;9.80;99.90
44513;DHT22;30219;50.588;9.504;2022-09-19T06:25:36;9.90;99.90
44513;DHT22;30219;50.588;9.504;2022-09-19T06:28:07;9.90;99.90
44513;DHT22;30219;50.588;9.504;2022-09-19T06:30:35;9.90;99.90
44513;DHT22;30219;50.588;9.504;2022-09-19T06:33:01;10.00;99.90
44513;DHT22;30219;50.588;9.504;2022-09-19T06:35:29;10.00;99.90
44513;DHT22;30219;50.588;9.504;2022-09-19T06:37:58;10.00;99.90
44513;DHT22;30219;50.588;9.504;2022-09-19T06:40:24;10.00;99.90
44513;DHT22;30219;50.588;9.504;2022-09-19T06:43:02;10.10;99.90
44513;DHT22;30219;50.588;9.504;2022-09-19T06:45:33;10.20;99.90
44513;DHT22;30219;50.588;9.504;2022-09-19T06:48:05;10.30;99.90
44513;DHT22;30219;50.588;9.504;2022-09-19T06:50:30;10.30;99.90
44513;DHT22;30219;50.588;9.504;2022-09-19T06:52:57;10.50;99.90
44513;DHT22;30219;50.588;9.504;2022-09-19T06:55:23;10.60;99.90
44513;DHT22;30219;50.588;9.504;2022-09-19T07:00:26;11.00;99.90
44513;DHT22;30219;50.588;9.504;2022-09-19T07:02:55;11.30;99.90
44513;DHT22;30219;50.588;9.504;2022-09-19T07:05:23;12.00;99.90
44513;DHT22;30219;50.588;9.504;2022-09-19T07:07:48;12.60;99.90
44513;DHT22;30219;50.588;9.504;2022-09-19T07:10:17;13.40;99.90
44513;DHT22;30219;50.588;9.504;2022-09-19T07:12:56;13.90;99.90
44513;DHT22;30219;50.588;9.504;2022-09-19T07:15:25;13.90;99.90
44513;DHT22;30219;50.588;9.504;2022-09-19T07:17:55;13.50;99.90
44513;DHT22;30219;50.588;9.504;2022-09-19T07:20:22;13.60;99.90
44513;DHT22;30219;50.588;9.504;2022-09-19T07:23:02;13.50;99.90
44513;DHT22;30219;50.588;9.504;2022-09-19T07:25:29;13.40;99.90
44513;DHT22;30219;50.588;9.504;2022-09-19T07:28:00;13.20;99.90
44513;DHT22;30219;50.588;9.504;2022-09-19T07:30:26;13.00;99.90
44513;DHT22;30219;50.588;9.504;2022-09-19T07:32:59;13.10;99.90
44513;DHT22;30219;50.588;9.504;2022-09-19T07:35:26;13.60;99.90
44513;DHT22;30219;50.588;9.504;2022-09-19T07:37:54;14.30;99.90
44513;DHT22;30219;50.588;9.504;2022-09-19T07:40:20;15.20;99.90
44513;DHT22;30219;50.588;9.504;2022-09-19T07:42:46;16.10;99.90
44513;DHT22;30219;50.588;9.504;2022-09-19T07:45:11;17.10;99.90
44513;DHT22;30219;50.588;9.504;2022-09-19T07:47:44;17.60;99.90
44513;DHT22;30219;50.588;9.504;2022-09-19T07:50:12;18.20;99.90
44513;DHT22;30219;50.588;9.504;2022-09-19T07:52:40;18.80;99.90
44513;DHT22;30219;50.588;9.504;2022-09-19T07:55:07;19.20;99.30
44513;DHT22;30219;50.588;9.504;2022-09-19T07:57:35;19.20;98.00
44513;DHT22;30219;50.588;9.504;2022-09-19T08:00:00;19.50;97.90
44513;DHT22;30219;50.588;9.504;2022-09-19T08:02:26;19.90;97.00
44513;DHT22;30219;50.588;9.504;2022-09-19T08:04:51;20.00;96.70
44513;DHT22;30219;50.588;9.504;2022-09-19T08:07:17;20.20;95.60
44513;DHT22;30219;50.588;9.504;2022-09-19T08:09:43;20.40;95.00
44513;DHT22;30219;50.588;9.504;2022-09-19T08:12:09;20.60;95.80
44513;DHT22;30219;50.588;9.504;2022-09-19T08:14:37;20.80;95.00
44513;DHT22;30219;50.588;9.504;2022-09-19T08:17:03;20.60;94.40
44513;DHT22;30219;50.588;9.504;2022-09-19T08:19:28;20.30;94.50
44513;DHT22;30219;50.588;9.504;2022-09-19T08:21:54;19.50;95.20
44513;DHT22;30219;50.588;9.504;2022-09-19T08:24:19;19.30;95.90
44513;DHT22;30219;50.588;9.504;2022-09-19T08:26:45;19.20;95.60
44513;DHT22;30219;50.588;9.504;2022-09-19T08:29:10;19.10;96.10
44513;DHT22;30219;50.588;9.504;2022-09-19T08:31:36;19.20;96.10
44513;DHT22;30219;50.588;9.504;2022-09-19T08:34:02;19.40;96.20
44513;DHT22;30219;50.588;9.504;2022-09-19T08:36:28;18.90;95.40
44513;DHT22;30219;50.588;9.504;2022-09-19T08:38:54;18.60;95.60
44513;DHT22;30219;50.588;9.504;2022-09-19T08:44:20;18.00;98.20
44513;DHT22;30219;50.588;9.504;2022-09-19T08:47:06;17.30;98.10
44513;DHT22;30219;50.588;9.504;2022-09-19T08:49:51;17.10;99.00
44513;DHT22;30219;50.588;9.504;2022-09-19T08:52:25;17.80;98.80
44513;DHT22;30219;50.588;9.504;2022-09-19T08:54:54;18.40;98.10
44513;DHT22;30219;50.588;9.504;2022-09-19T08:57:33;19.20;97.60
44513;DHT22;30219;50.588;9.504;2022-09-19T09:00:14;19.70;96.30
44513;DHT22;30219;50.588;9.504;2022-09-19T09:05:20;20.30;95.40
44513;DHT22;30219;50.588;9.504;2022-09-19T09:07:57;19.80;95.00
44513;DHT22;30219;50.588;9.504;2022-09-19T09:10:39;19.40;95.90
44513;DHT22;30219;50.588;9.504;2022-09-19T09:16:19;19.20;95.70
44513;DHT22;30219;50.588;9.504;2022-09-19T09:19:06;19.20;95.70
44513;DHT22;30219;50.588;9.504;2022-09-19T09:22:08;19.00;95.70
44513;DHT22;30219;50.588;9.504;2022-09-19T09:24:39;18.70;96.40
44513;DHT22;30219;50.588;9.504;2022-09-19T09:27:16;18.70;96.50
44513;DHT22;30219;50.588;9.504;2022-09-19T09:29:53;18.80;96.60
44513;DHT22;30219;50.588;9.504;2022-09-19T09:32:32;18.70;96.70
44513;DHT22;30219;50.588;9.504;2022-09-19T09:37:37;18.50;96.70
44513;DHT22;30219;50.588;9.504;2022-09-19T09:40:28;18.10;97.50
44513;DHT22;30219;50.588;9.504;2022-09-19T09:43:14;17.50;97.70
44513;DHT22;30219;50.588;9.504;2022-09-19T09:45:48;17.10;98.80
44513;DHT22;30219;50.588;9.504;2022-09-19T09:48:36;16.60;99.00
44513;DHT22;30219;50.588;9.504;2022-09-19T09:54:22;15.90;99.90
44513;DHT22;30219;50.588;9.504;2022-09-19T09:57:13;15.40;99.90
44513;DHT22;30219;50.588;9.504;2022-09-19T10:02:50;15.20;99.90
44513;DHT22;30219;50.588;9.504;2022-09-19T10:05:43;15.70;99.90
44513;DHT22;30219;50.588;9.504;2022-09-19T10:08:36;15.90;99.90
44513;DHT22;30219;50.588;9.504;2022-09-19T10:11:18;16.50;99.90
44513;DHT22;30219;50.588;9.504;2022-09-19T10:13:53;17.10;99.90
44513;DHT22;30219;50.588;9.504;2022-09-19T10:16:31;17.50;99.90
44513;DHT22;30219;50.588;9.504;2022-09-19T10:19:08;17.80;99.90
44513;DHT22;30219;50.588;9.504;2022-09-19T10:21:37;17.60;99.90
44513;DHT22;30219;50.588;9.504;2022-09-19T10:24:43;17.70;99.90
44513;DHT22;30219;50.588;9.504;2022-09-19T10:27:23;17.40;99.90
44513;DHT22;30219;50.588;9.504;2022-09-19T10:29:58;17.40;99.90
44513;DHT22;30219;50.588;9.504;2022-09-19T10:32:34;17.10;99.90
44513;DHT22;30219;50.588;9.504;2022-09-19T10:35:21;16.80;99.90
44513;DHT22;30219;50.588;9.504;2022-09-19T10:38:10;16.30;99.90
44513;DHT22;30219;50.588;9.504;2022-09-19T10:40:55;15.80;99.90
44513;DHT22;30219;50.588;9.504;2022-09-19T10:43:33;15.90;99.90
44513;DHT22;30219;50.588;9.504;2022-09-19T10:46:04;16.00;99.90
44513;DHT22;30219;50.588;9.504;2022-09-19T10:48:39;16.10;99.90
44513;DHT22;30219;50.588;9.504;2022-09-19T10:51:11;15.80;99.90
44513;DHT22;30219;50.588;9.504;2022-09-19T10:53:41;15.40;99.90
44513;DHT22;30219;50.588;9.504;2022-09-19T10:56:18;15.30;99.90
44513;DHT22;30219;50.588;9.504;2022-09-19T10:58:49;15.40;99.90
44513;DHT22;30219;50.588;9.504;2022-09-19T11:01:23;15.30;99.90
44513;DHT22;30219;50.588;9.504;2022-09-19T11:06:24;15.70;99.90
44513;DHT22;30219;50.588;9.504;2022-09-19T11:08:52;16.00;99.90
44513;DHT22;30219;50.588;9.504;2022-09-19T11:14:20;16.50;99.90
44513;DHT22;30219;50.588;9.504;2022-09-19T11:25:25;17.40;99.90
44513;DHT22;30219;50.588;9.504;2022-09-19T11:33:47;16.10;99.90
44513;DHT22;30219;50.588;9.504;2022-09-19T11:36:28;15.70;99.90
44513;DHT22;30219;50.588;9.504;2022-09-19T11:39:04;16.00;99.90
44513;DHT22;30219;50.588;9.504;2022-09-19T11:41:56;16.20;99.90
44513;DHT22;30219;50.588;9.504;2022-09-19T11:58:15;18.10;99.90
44513;DHT22;30219;50.588;9.504;2022-09-19T12:09:17;18.40;99.90
44513;DHT22;30219;50.588;9.504;2022-09-19T12:11:50;18.10;99.90
44513;DHT22;30219;50.588;9.504;2022-09-19T12:14:26;17.80;99.90
44513;DHT22;30219;50.588;9.504;2022-09-19T12:16:56;17.60;99.90
44513;DHT22;30219;50.588;9.504;2022-09-19T12:19:37;17.40;99.90
44513;DHT22;30219;50.588;9.504;2022-09-19T12:22:15;17.30;99.90
44513;DHT22;30219;50.588;9.504;2022-09-19T12:24:46;17.00;99.90
44513;DHT22;30219;50.588;9.504;2022-09-19T12:30:05;17.00;99.90
44513;DHT22;30219;50.588;9.504;2022-09-19T12:33:01;17.00;99.90
44513;DHT22;30219;50.588;9.504;2022-09-19T12:35:54;16.80;99.90
44513;DHT22;30219;50.588;9.504;2022-09-19T12:38:56;16.70;99.90
44513;DHT22;30219;50.588;9.504;2022-09-19T12:41:37;16.70;99.90
44513;DHT22;30219;50.588;9.504;2022-09-19T12:44:33;16.90;99.90
44513;DHT22;30219;50.588;9.504;2022-09-19T12:49:57;17.10;99.90
44513;DHT22;30219;50.588;9.504;2022-09-19T12:52:39;17.00;99.90
44513;DHT22;30219;50.588;9.504;2022-09-19T12:55:20;16.90;99.90
44513;DHT22;30219;50.588;9.504;2022-09-19T12:58:12;17.20;99.90
44513;DHT22;30219;50.588;9.504;2022-09-19T13:00:42;17.60;99.90
44513;DHT22;30219;50.588;9.504;2022-09-19T13:03:32;17.70;99.90
44513;DHT22;30219;50.588;9.504;2022-09-19T13:06:13;17.60;99.90
44513;DHT22;30219;50.588;9.504;2022-09-19T13:08:52;17.90;99.90
44513;DHT22;30219;50.588;9.504;2022-09-19T13:11:40;18.10;99.90
44513;DHT22;30219;50.588;9.504;2022-09-19T13:14:39;18.00;98.60
44513;DHT22;30219;50.588;9.504;2022-09-19T13:17:10;18.00;99.10
44513;DHT22;30219;50.588;9.504;2022-09-19T13:19:55;18.10;99.40
44513;DHT22;30219;50.588;9.504;2022-09-19T13:22:49;18.20;99.20
44513;DHT22;30219;50.588;9.504;2022-09-19T13:25:34;18.00;99.60
44513;DHT22;30219;50.588;9.504;2022-09-19T13:33:34;17.60;99.90
44513;DHT22;30219;50.588;9.504;2022-09-19T13:36:08;18.00;99.90
44513;DHT22;30219;50.588;9.504;2022-09-19T13:38:52;17.90;99.80
44513;DHT22;30219;50.588;9.504;2022-09-19T13:41:31;17.60;99.90
44513;DHT22;30219;50.588;9.504;2022-09-19T13:46:53;17.30;99.90
44513;DHT22;30219;50.588;9.504;2022-09-19T13:49:23;17.60;99.90
44513;DHT22;30219;50.588;9.504;2022-09-19T13:52:01;18.00;99.90
44513;DHT22;30219;50.588;9.504;2022-09-19T13:54:35;17.80;99.90
44513;DHT22;30219;50.588;9.504;2022-09-19T13:57:09;17.70;99.90
44513;DHT22;30219;50.588;9.504;2022-09-19T13:59:40;17.60;99.90
44513;DHT22;30219;50.588;9.504;2022-09-19T14:04:45;17.10;99.90
44513;DHT22;30219;50.588;9.504;2022-09-19T14:10:02;17.40;99.90
44513;DHT22;30219;50.588;9.504;2022-09-19T14:15:41;17.80;99.60
44513;DHT22;30219;50.588;9.504;2022-09-19T14:20:55;17.80;98.90
44513;DHT22;30219;50.588;9.504;2022-09-19T14:23:41;17.20;99.10
44513;DHT22;30219;50.588;9.504;2022-09-19T14:32:08;17.00;99.40
44513;DHT22;30219;50.588;9.504;2022-09-19T14:48:30;16.50;99.90
44513;DHT22;30219;50.588;9.504;2022-09-19T14:51:22;16.40;99.90
44513;DHT22;30219;50.588;9.504;2022-09-19T14:54:13;16.50;99.90
44513;DHT22;30219;50.588;9.504;2022-09-19T14:59:19;16.50;99.90
44513;DHT22;30219;50.588;9.504;2022-09-19T15:01:49;16.40;99.90
44513;DHT22;30219;50.588;9.504;2022-09-19T15:04:20;16.40;99.90
44513;DHT22;30219;50.588;9.504;2022-09-19T15:06:53;16.50;99.90
44513;DHT22;30219;50.588;9.504;2022-09-19T15:09:28;16.70;99.90
44513;DHT22;30219;50.588;9.504;2022-09-19T15:11:56;16.90;99.90
44513;DHT22;30219;50.588;9.504;2022-09-19T15:14:24;17.10;99.90
44513;DHT22;30219;50.588;9.504;2022-09-19T15:17:08;17.20;99.90
44513;DHT22;30219;50.588;9.504;2022-09-19T15:19:41;17.20;99.90
44513;DHT22;30219;50.588;9.504;2022-09-19T15:22:30;17.30;99.90
44513;DHT22;30219;50.588;9.504;2022-09-19T15:24:59;17.50;99.90
44513;DHT22;30219;50.588;9.504;2022-09-19T15:27:28;17.60;99.90
44513;DHT22;30219;50.588;9.504;2022-09-19T15:29:54;17.40;99.90
44513;DHT22;30219;50.588;9.504;2022-09-19T15:32:30;17.30;99.90
44513;DHT22;30219;50.588;9.504;2022-09-19T15:35:11;17.20;99.90
44513;DHT22;30219;50.588;9.504;2022-09-19T15:37:42;17.00;99.90
44513;DHT22;30219;50.588;9.504;2022-09-19T15:40:12;16.80;99.90
44513;DHT22;30219;50.588;9.504;2022-09-19T15:42:41;16.50;99.90
44513;DHT22;30219;50.588;9.504;2022-09-19T15:48:16;15.90;99.90
44513;DHT22;30219;50.588;9.504;2022-09-19T15:50:47;15.70;99.30
44513;DHT22;30219;50.588;9.504;2022-09-19T15:53:17;15.40;99.30
44513;DHT22;30219;50.588;9.504;2022-09-19T15:55:44;15.20;99.80
44513;DHT22;30219;50.588;9.504;2022-09-19T15:58:20;15.20;99.90
44513;DHT22;30219;50.588;9.504;2022-09-19T16:00:47;14.90;99.60
44513;DHT22;30219;50.588;9.504;2022-09-19T16:03:18;14.80;99.30
44513;DHT22;30219;50.588;9.504;2022-09-19T16:05:44;14.50;99.20
44513;DHT22;30219;50.588;9.504;2022-09-19T16:08:29;14.40;99.60
44513;DHT22;30219;50.588;9.504;2022-09-19T16:11:35;14.40;99.90
44513;DHT22;30219;50.588;9.504;2022-09-19T16:14:27;14.40;99.90
44513;DHT22;30219;50.588;9.504;2022-09-19T16:16:54;14.30;99.90
44513;DHT22;30219;50.588;9.504;2022-09-19T16:21:56;14.50;99.90
44513;DHT22;30219;50.588;9.504;2022-09-19T16:24:23;14.60;99.90
44513;DHT22;30219;50.588;9.504;2022-09-19T16:26:53;14.60;99.90
44513;DHT22;30219;50.588;9.504;2022-09-19T16:29:20;14.60;99.90
44513;DHT22;30219;50.588;9.504;2022-09-19T16:31:46;14.50;99.90
44513;DHT22;30219;50.588;9.504;2022-09-19T16:36:47;14.40;99.90
44513;DHT22;30219;50.588;9.504;2022-09-19T16:39:40;14.40;99.90
44513;DHT22;30219;50.588;9.504;2022-09-19T16:42:20;14.30;99.90
44513;DHT22;30219;50.588;9.504;2022-09-19T16:44:48;14.30;99.90
44513;DHT22;30219;50.588;9.504;2022-09-19T16:47:21;14.20;99.90
44513;DHT22;30219;50.588;9.504;2022-09-19T16:49:49;14.20;99.90
44513;DHT22;30219;50.588;9.504;2022-09-19T16:54:44;14.10;99.90
44513;DHT22;30219;50.588;9.504;2022-09-19T16:57:12;13.90;99.90
44513;DHT22;30219;50.588;9.504;2022-09-19T16:59:40;13.90;99.90
44513;DHT22;30219;50.588;9.504;2022-09-19T17:02:14;13.90;99.90
44513;DHT22;30219;50.588;9.504;2022-09-19T17:04:41;13.90;99.90
44513;DHT22;30219;50.588;9.504;2022-09-19T17:07:09;13.80;99.90
44513;DHT22;30219;50.588;9.504;2022-09-19T17:09:35;13.70;99.90
44513;DHT22;30219;50.588;9.504;2022-09-19T17:12:01;13.70;99.90
44513;DHT22;30219;50.588;9.504;2022-09-19T17:14:27;13.60;99.90
44513;DHT22;30219;50.588;9.504;2022-09-19T17:16:52;13.50;99.90
44513;DHT22;30219;50.588;9.504;2022-09-19T17:19:18;13.40;99.90
44513;DHT22;30219;50.588;9.504;2022-09-19T17:21:43;13.40;99.90
44513;DHT22;30219;50.588;9.504;2022-09-19T17:24:11;13.40;99.90
44513;DHT22;30219;50.588;9.504;2022-09-19T17:26:37;13.40;99.90
44513;DHT22;30219;50.588;9.504;2022-09-19T17:29:02;13.30;99.90
44513;DHT22;30219;50.588;9.504;2022-09-19T17:31:28;13.30;99.90
44513;DHT22;30219;50.588;9.504;2022-09-19T17:33:54;13.20;99.90
44513;DHT22;30219;50.588;9.504;2022-09-19T17:36:20;13.20;99.90
44513;DHT22;30219;50.588;9.504;2022-09-19T17:38:46;13.10;99.90
44513;DHT22;30219;50.588;9.504;2022-09-19T17:41:12;13.10;99.90
44513;DHT22;30219;50.588;9.504;2022-09-19T17:43:39;13.00;99.90
44513;DHT22;30219;50.588;9.504;2022-09-19T17:46:11;12.80;99.90
44513;DHT22;30219;50.588;9.504;2022-09-19T17:48:37;12.70;99.90
44513;DHT22;30219;50.588;9.504;2022-09-19T17:51:10;12.50;99.90
44513;DHT22;30219;50.588;9.504;2022-09-19T17:53:36;12.50;99.90
44513;DHT22;30219;50.588;9.504;2022-09-19T17:56:10;12.30;99.90
44513;DHT22;30219;50.588;9.504;2022-09-19T17:58:36;12.10;99.90
44513;DHT22;30219;50.588;9.504;2022-09-19T18:01:01;11.90;99.90
44513;DHT22;30219;50.588;9.504;2022-09-19T18:03:47;11.70;99.90
44513;DHT22;30219;50.588;9.504;2022-09-19T18:06:12;11.60;99.90
44513;DHT22;30219;50.588;9.504;2022-09-19T18:08:38;11.50;99.90
44513;DHT22;30219;50.588;9.504;2022-09-19T18:11:04;11.50;99.90
44513;DHT22;30219;50.588;9.504;2022-09-19T18:13:31;11.40;99.90
44513;DHT22;30219;50.588;9.504;2022-09-19T18:16:04;11.50;99.90
44513;DHT22;30219;50.588;9.504;2022-09-19T18:18:29;11.60;99.90
44513;DHT22;30219;50.588;9.504;2022-09-19T18:20:56;11.60;99.90
44513;DHT22;30219;50.588;9.504;2022-09-19T18:23:28;11.70;99.90
44513;DHT22;30219;50.588;9.504;2022-09-19T18:25:57;11.70;99.90
44513;DHT22;30219;50.588;9.504;2022-09-19T18:28:24;11.70;99.90